createdAt,value
2023-05-01T00:00:47.012Z,99969.95
2023-05-01T00:05:50.665Z,99969.77
2023-05-01T00:10:53.959Z,99971.77
2023-05-01T00:15:57.336Z,99977.20
2023-05-01T00:21:00.472Z,99977.48
2023-05-01T00:26:03.707Z,99984.39
2023-05-01T00:31:06.715Z,99985.08
2023-05-01T00:36:10.155Z,99986.27
2023-05-01T00:41:13.303Z,99982.76
2023-05-01T00:46:19.227Z,99987.24
2023-05-01T00:51:22.596Z,99988.57
2023-05-01T00:56:26.460Z,99996.25
2023-05-01T01:01:31.955Z,99999.93
2023-05-01T01:06:58.375Z,100001.02
2023-05-01T01:12:13.423Z,100013.84
2023-05-01T01:18:06.461Z,100011.98
2023-05-01T01:23:48.798Z,100009.56
2023-05-01T01:29:15.229Z,100012.57
2023-05-01T01:34:27.848Z,100012.92
2023-05-01T01:40:11.487Z,100015.83
2023-05-01T01:45:36.758Z,100017.03
2023-05-01T01:50:42.485Z,100014.58
2023-05-01T01:55:48.263Z,100017.14
2023-05-01T02:00:51.501Z,100019.20
2023-05-01T02:05:58.712Z,100015.62
2023-05-01T02:11:03.038Z,100011.83
2023-05-01T02:16:07.588Z,100014.54
2023-05-01T02:21:12.526Z,100013.00
2023-05-01T02:26:18.294Z,100015.70
2023-05-01T02:31:23.329Z,100022.26
2023-05-01T02:36:27.692Z,100027.27
2023-05-01T02:41:32.476Z,100031.14
2023-05-01T02:46:38.037Z,100035.13
2023-05-01T02:51:41.508Z,100028.80
2023-05-01T02:56:44.616Z,100032.57
2023-05-01T03:01:48.116Z,100034.09
2023-05-01T03:06:52.389Z,100031.10
2023-05-01T03:11:55.618Z,100027.61
2023-05-01T03:16:58.629Z,100024.88
2023-05-01T03:22:01.569Z,100021.48
2023-05-01T03:27:05.656Z,100027.08
2023-05-01T03:32:08.627Z,100021.55
2023-05-01T03:37:12.194Z,100017.46
2023-05-01T03:42:15.164Z,100017.32
2023-05-01T03:47:19.336Z,100019.08
2023-05-01T03:52:22.351Z,100019.23
2023-05-01T03:57:25.313Z,100020.79
2023-05-01T04:02:28.417Z,100018.08
2023-05-01T04:07:31.590Z,100020.23
2023-05-01T04:12:34.562Z,100014.51
2023-05-01T04:17:37.693Z,100015.35
2023-05-01T04:22:40.682Z,100012.52
2023-05-01T04:27:43.747Z,100019.67
2023-05-01T04:32:46.719Z,100014.40
2023-05-01T04:37:49.699Z,100009.95
2023-05-01T04:42:52.720Z,100009.39
2023-05-01T04:47:56.291Z,100008.88
2023-05-01T04:52:59.692Z,100012.75
2023-05-01T04:58:04.836Z,100014.20
2023-05-01T05:03:08.162Z,100018.09
2023-05-01T05:08:11.136Z,100021.61
2023-05-01T05:13:14.131Z,100022.70
2023-05-01T05:18:17.176Z,100029.30
2023-05-01T05:23:20.198Z,100031.46
2023-05-01T05:28:23.998Z,100027.52
2023-05-01T05:33:27.317Z,100028.61
2023-05-01T05:38:30.301Z,100025.20
2023-05-01T05:43:33.310Z,100028.00
2023-05-01T05:48:36.286Z,100028.30
2023-05-01T05:53:39.242Z,100037.14
2023-05-01T05:58:42.262Z,100036.02
2023-05-01T06:03:45.357Z,100037.62
2023-05-01T06:08:48.396Z,100046.92
2023-05-01T06:13:51.393Z,100043.38
2023-05-01T06:18:54.436Z,100049.90
2023-05-01T06:23:57.423Z,100049.88
2023-05-01T06:29:00.417Z,100050.40
2023-05-01T06:34:03.359Z,100045.85
2023-05-01T06:39:06.768Z,100048.61
2023-05-01T06:44:09.740Z,100045.30
2023-05-01T06:49:12.676Z,100045.09
2023-05-01T06:54:15.714Z,100044.88
2023-05-01T06:59:18.821Z,100035.91
2023-05-01T07:04:21.806Z,100032.56
2023-05-01T07:09:24.846Z,100030.50
2023-05-01T07:14:27.833Z,100029.17
2023-05-01T07:19:30.883Z,100028.80
2023-05-01T07:24:33.856Z,100024.67
2023-05-01T07:29:38.938Z,100022.13
2023-05-01T07:34:41.902Z,100017.98
2023-05-01T07:39:45.371Z,100020.84
2023-05-01T07:44:50.884Z,100018.46
2023-05-01T07:49:54.023Z,100018.40
2023-05-01T07:54:57.029Z,100014.14
2023-05-01T08:00:00.048Z,100014.19
2023-05-01T08:05:04.186Z,100013.84
2023-05-01T08:10:07.914Z,100012.86
2023-05-01T08:15:10.947Z,100016.28
2023-05-01T08:20:13.926Z,100010.76
2023-05-01T08:25:17.032Z,100007.26
2023-05-01T08:30:20.043Z,100009.10
2023-05-01T08:35:23.041Z,100011.36
2023-05-01T08:40:27.030Z,100016.83
2023-05-01T08:45:36.022Z,100018.10
2023-05-01T08:50:41.155Z,100022.46
2023-05-01T08:55:48.719Z,100021.66
2023-05-01T09:00:53.170Z,100020.23
2023-05-01T09:05:56.630Z,100017.83
2023-05-01T09:11:00.941Z,100013.08
2023-05-01T09:16:06.745Z,100008.23
2023-05-01T09:21:10.508Z,100009.48
2023-05-01T09:26:13.457Z,100001.37
2023-05-01T09:31:30.452Z,99995.34
2023-05-01T09:36:34.676Z,99993.95
2023-05-01T09:41:51.200Z,99993.41
2023-05-01T09:46:54.524Z,99983.90
2023-05-01T09:52:11.992Z,99981.30
2023-05-01T09:57:14.984Z,99984.20
2023-05-01T10:02:32.049Z,99979.42
2023-05-01T10:07:35.102Z,99978.75
2023-05-01T10:12:38.130Z,99977.14
2023-05-01T10:17:43.499Z,99971.67
2023-05-01T10:22:46.786Z,99960.91
2023-05-01T10:27:51.334Z,99961.30
2023-05-01T10:32:54.763Z,99963.27
2023-05-01T10:38:21.754Z,99957.48
2023-05-01T10:43:30.536Z,99951.77
2023-05-01T10:48:45.152Z,99953.64
2023-05-01T10:54:11.556Z,99947.09
2023-05-01T10:59:17.874Z,99942.44
2023-05-01T11:04:24.782Z,99936.70
2023-05-01T11:09:44.693Z,99931.35
2023-05-01T11:14:54.246Z,99923.63
2023-05-01T11:20:00.456Z,99926.42
2023-05-01T11:25:17.432Z,99920.59
2023-05-01T11:30:21.164Z,99906.52
2023-05-01T11:35:27.423Z,99906.33
2023-05-01T11:40:32.994Z,99899.17
2023-05-01T11:45:37.568Z,99886.67
2023-05-01T11:50:40.897Z,99876.91
2023-05-01T11:55:44.631Z,99875.23
2023-05-01T12:00:50.796Z,99866.23
2023-05-01T12:05:54.094Z,99867.27
2023-05-01T12:10:57.711Z,99864.57
2023-05-01T12:16:01.014Z,99860.56
2023-05-01T12:21:04.034Z,99857.36
2023-05-01T12:26:23.788Z,99846.98
2023-05-01T12:31:27.967Z,99839.31
2023-05-01T12:36:33.707Z,99835.13
2023-05-01T12:41:50.028Z,99833.13
2023-05-01T12:47:06.699Z,99836.09
2023-05-01T12:52:09.937Z,99824.87
2023-05-01T12:57:15.590Z,99817.93
2023-05-01T13:02:18.921Z,99814.23
2023-05-01T13:07:22.065Z,99812.02
2023-05-01T13:12:26.793Z,99805.45
2023-05-01T13:17:33.636Z,99798.91
2023-05-01T13:22:39.280Z,99795.59
2023-05-01T13:27:47.455Z,99789.03
2023-05-01T13:32:50.485Z,99780.45
2023-05-01T13:37:54.492Z,99776.33
2023-05-01T13:42:57.481Z,99768.98
2023-05-01T13:48:03.094Z,99766.08
2023-05-01T13:53:06.963Z,99767.54
2023-05-01T13:58:09.984Z,99763.11
2023-05-01T14:03:15.878Z,99755.83
2023-05-01T14:08:28.365Z,99749.96
2023-05-01T14:13:31.348Z,99748.89
2023-05-01T14:18:35.321Z,99739.11
2023-05-01T14:23:42.189Z,99731.30
2023-05-01T14:28:48.171Z,99732.11
2023-05-01T14:34:15.610Z,99727.74
2023-05-01T14:39:18.823Z,99724.86
2023-05-01T14:44:24.247Z,99722.20
2023-05-01T14:49:29.733Z,99722.84
2023-05-01T14:54:46.040Z,99717.11
2023-05-01T14:59:49.795Z,99717.80
2023-05-01T15:04:52.777Z,99716.17
2023-05-01T15:09:55.775Z,99714.02
2023-05-01T15:14:59.124Z,99704.36
2023-05-01T15:20:02.312Z,99705.29
2023-05-01T15:25:05.728Z,99699.48
2023-05-01T15:30:10.332Z,99696.96
2023-05-01T15:35:13.613Z,99693.42
2023-05-01T15:40:16.949Z,99686.23
2023-05-01T15:45:20.622Z,99686.17
2023-05-01T15:50:27.436Z,99681.73
2023-05-01T15:55:30.428Z,99681.40
2023-05-01T16:00:35.844Z,99670.39
2023-05-01T16:05:39.162Z,99668.98
2023-05-01T16:10:42.096Z,99660.79
2023-05-01T16:15:44.991Z,99658.64
2023-05-01T16:20:47.932Z,99650.19
2023-05-01T16:25:51.033Z,99651.04
2023-05-01T16:30:55.805Z,99655.86
2023-05-01T16:35:59.900Z,99653.23
2023-05-01T16:41:04.210Z,99648.86
2023-05-01T16:46:07.030Z,99641.42
2023-05-01T16:51:11.968Z,99637.77
2023-05-01T16:56:15.418Z,99639.44
2023-05-01T17:01:18.449Z,99636.18
2023-05-01T17:06:21.705Z,99623.81
2023-05-01T17:11:24.775Z,99622.11
2023-05-01T17:16:27.929Z,99621.46
2023-05-01T17:21:32.413Z,99628.02
2023-05-01T17:26:35.387Z,99627.64
2023-05-01T17:31:38.483Z,99624.51
2023-05-01T17:36:41.529Z,99622.11
2023-05-01T17:41:44.564Z,99620.08
2023-05-01T17:46:47.493Z,99617.84
2023-05-01T17:51:50.451Z,99619.10
2023-05-01T17:56:53.403Z,99622.20
2023-05-01T18:01:57.133Z,99627.64
2023-05-01T18:07:00.748Z,99620.70
2023-05-01T18:12:03.961Z,99624.33
2023-05-01T18:17:07.134Z,99623.69
2023-05-01T18:22:10.614Z,99626.08
2023-05-01T18:27:13.719Z,99625.58
2023-05-01T18:32:16.686Z,99626.02
2023-05-01T18:37:19.649Z,99622.55
2023-05-01T18:42:22.555Z,99619.77
2023-05-01T18:47:27.669Z,99622.95
2023-05-01T18:52:31.350Z,99626.86
2023-05-01T18:57:35.551Z,99620.17
2023-05-01T19:02:42.700Z,99624.92
2023-05-01T19:07:45.860Z,99628.36
2023-05-01T19:12:49.469Z,99620.09
2023-05-01T19:17:52.473Z,99617.80
2023-05-01T19:22:55.567Z,99618.41
2023-05-01T19:27:58.510Z,99616.03
2023-05-01T19:33:01.488Z,99615.46
2023-05-01T19:38:04.505Z,99609.30
2023-05-01T19:43:07.466Z,99608.70
2023-05-01T19:48:10.760Z,99604.60
2023-05-01T19:53:13.744Z,99602.10
2023-05-01T19:58:16.689Z,99601.98
2023-05-01T20:03:19.845Z,99600.77
2023-05-01T20:08:22.826Z,99597.70
2023-05-01T20:13:25.757Z,99602.46
2023-05-01T20:18:28.806Z,99599.05
2023-05-01T20:23:31.751Z,99594.90
2023-05-01T20:28:36.080Z,99587.77
2023-05-01T20:33:39.142Z,99583.00
2023-05-01T20:38:47.224Z,99578.95
2023-05-01T20:43:50.181Z,99579.05
2023-05-01T20:48:53.533Z,99579.91
2023-05-01T20:53:56.628Z,99578.52
2023-05-01T20:59:04.934Z,99581.12
2023-05-01T21:04:08.202Z,99582.21
2023-05-01T21:09:15.009Z,99583.01
2023-05-01T21:14:17.994Z,99580.61
2023-05-01T21:19:21.000Z,99575.38
2023-05-01T21:24:25.790Z,99577.02
2023-05-01T21:29:28.896Z,99577.20
2023-05-01T21:34:31.939Z,99574.11
2023-05-01T21:39:36.326Z,99572.61
2023-05-01T21:44:39.381Z,99568.06
2023-05-01T21:49:42.425Z,99567.29
2023-05-01T21:54:45.488Z,99567.59
2023-05-01T21:59:48.557Z,99570.00
2023-05-01T22:04:54.772Z,99568.56
2023-05-01T22:09:57.945Z,99566.42
2023-05-01T22:15:01.396Z,99563.80
2023-05-01T22:20:07.219Z,99562.31
2023-05-01T22:25:11.643Z,99562.38
2023-05-01T22:30:14.607Z,99556.05
2023-05-01T22:35:17.654Z,99554.58
2023-05-01T22:40:20.649Z,99553.01
2023-05-01T22:45:26.412Z,99554.20
2023-05-01T22:50:29.404Z,99549.27
2023-05-01T22:55:33.101Z,99547.95
2023-05-01T23:00:36.631Z,99545.02
2023-05-01T23:05:39.559Z,99548.52
2023-05-01T23:10:42.788Z,99544.23
2023-05-01T23:15:47.623Z,99542.52
2023-05-01T23:20:52.663Z,99538.55
2023-05-01T23:25:55.824Z,99528.30
2023-05-01T23:31:02.662Z,99528.78
2023-05-01T23:36:12.852Z,99526.11
2023-05-01T23:41:16.308Z,99521.48
2023-05-01T23:46:19.454Z,99520.40
2023-05-01T23:51:23.031Z,99515.46
2023-05-01T23:56:26.147Z,99510.81
